^^
Grace C. Lehan Memorial Weather Station Historical Data
Daily Summary for June 29, 2021 Units:  English    Metric   Both
Daily Weekly Monthly Yearly
  High: Low: Average:
Temperature: 66.6 °F 49.2 °F 56.3 °F
Dew Point: 54.6 °F 46.2 °F 49.9 °F
Humidity: 94% 56% 80%
Wind Speed: 3.3mph 0mph 0.4mph
Wind Gust: 10mph - -
Wind- - SE
Pressure: 29.95 in 29.84 in -
Precipitation: 0.00 in    
 
 
Tabular Data for June 29, 2021
Time Temperature Dew Point Pressure Wind Wind Speed Wind Gust Humidity Rainfall Rate (Hourly) solar
00:00 56.8 °F 54.5 °F 29.84 in Calm   6 mph 92% 0.00 in 0 W/m2
00:09 56.6 °F 54.3 °F 29.85 in Calm     92% 0.00 in 0 W/m2
00:14 56.6 °F 54.3 °F 29.85 in Calm     92% 0.00 in 0 W/m2
00:19 56.5 °F 54.3 °F 29.86 in Calm     92.4% 0.00 in 0 W/m2
00:24 56.5 °F 54.5 °F 29.86 in Calm     93% 0.00 in 0 W/m2
00:29 56.4 °F 54.4 °F 29.86 in Calm     93% 0.00 in 0 W/m2
00:34 56.3 °F 54.3 °F 29.86 in Calm     92.8% 0.00 in 0 W/m2
00:39 56.2 °F 54.2 °F 29.86 in Calm     93% 0.00 in 0 W/m2
00:44 56.2 °F 54.2 °F 29.86 in Calm     93% 0.00 in 0 W/m2
00:49 56.2 °F 54.2 °F 29.86 in Calm     93% 0.00 in 0 W/m2
00:54 56.2 °F 54.4 °F 29.86 in Calm     93.8% 0.00 in 0 W/m2
00:59 56.2 °F 54.5 °F 29.87 in Calm     94% 0.00 in 0 W/m2
01:04 56.2 °F 54.5 °F 29.87 in Calm     94% 0.00 in 0 W/m2
01:09 56.2 °F 54.5 °F 29.86 in Calm     94% 0.00 in 0 W/m2
01:14 56.3 °F 54.6 °F 29.87 in Calm     94% 0.00 in 0 W/m2
01:19 56.3 °F 54.6 °F 29.87 in North 0.4 mph 4 mph 94% 0.00 in 0 W/m2
01:24 56.3 °F 54.6 °F 29.87 in North 1.2 mph 7 mph 94% 0.00 in 0 W/m2
01:29 56.1 °F 54.4 °F 29.87 in NNW 0.4 mph 7 mph 94% 0.00 in 0 W/m2
01:34 55.9 °F 54 °F 29.87 in NE 0.3 mph 7 mph 93.1% 0.00 in 0 W/m2
01:39 55.7 °F 53.5 °F 29.88 in NNW 0.3 mph 5 mph 92.2% 0.00 in 0 W/m2
01:44 55.7 °F 53.1 °F 29.88 in NNW 0.5 mph 6 mph 91% 0.00 in 0 W/m2
01:49 55.7 °F 52.9 °F 29.87 in Calm   6 mph 90.1% 0.00 in 0 W/m2
01:54 55.7 °F 52.8 °F 29.87 in Calm   6 mph 90% 0.00 in 0 W/m2
01:59 55.7 °F 52.6 °F 29.87 in Calm   6 mph 89.2% 0.00 in 0 W/m2
02:04 55.7 °F 52.5 °F 29.87 in Calm   6 mph 89% 0.00 in 0 W/m2
02:09 55.7 °F 52.5 °F 29.87 in NNW 0.1 mph 2 mph 89% 0.00 in 0 W/m2
02:14 55.5 °F 52 °F 29.87 in NE 0.4 mph 5 mph 88.1% 0.00 in 0 W/m2
02:19 55.3 °F 51.6 °F 29.86 in ENE 0.5 mph 6 mph 87.3% 0.00 in 0 W/m2
02:24 55.2 °F 51.4 °F 29.86 in NE 0.8 mph 6 mph 87% 0.00 in 0 W/m2
02:29 55.1 °F 51.3 °F 29.87 in NE 0.2 mph 6 mph 87% 0.00 in 0 W/m2
02:34 55 °F 51.2 °F 29.87 in NE 0.1 mph 6 mph 87% 0.00 in 0 W/m2
02:39 54.9 °F 51.1 °F 29.87 in North 0.3 mph 6 mph 87% 0.00 in 0 W/m2
02:44 54.8 °F 51.1 °F 29.88 in North 0.3 mph 6 mph 87.4% 0.00 in 0 W/m2
02:49 54.8 °F 51.3 °F 29.88 in Calm   6 mph 88% 0.00 in 0 W/m2
02:54 54.6 °F 50.9 °F 29.87 in NE 1 mph 6 mph 87.3% 0.00 in 0 W/m2
02:59 54.6 °F 50.8 °F 29.87 in East 1 mph 6 mph 87% 0.00 in 0 W/m2
03:04 54.6 °F 50.8 °F 29.86 in ENE 1 mph 6 mph 87% 0.00 in 0 W/m2
03:09 54.5 °F 50.7 °F 29.86 in ENE 0.5 mph 5 mph 87% 0.00 in 0 W/m2
03:14 54.4 °F 50.6 °F 29.86 in Calm   5 mph 87% 0.00 in 0 W/m2
03:19 54.4 °F 50.5 °F 29.87 in ENE 0.1 mph 5 mph 86.5% 0.00 in 0 W/m2
03:24 54.3 °F 50.5 °F 29.87 in ENE 0.1 mph 5 mph 87% 0.00 in 0 W/m2
03:29 54.3 °F 50.5 °F 29.87 in NNE 0.4 mph 5 mph 87% 0.00 in 0 W/m2
03:34 54.2 °F 50.4 °F 29.87 in NNE 0.3 mph 5 mph 87% 0.00 in 0 W/m2
03:39 54.1 °F 50.3 °F 29.87 in Calm   3 mph 87% 0.00 in 0 W/m2
03:44 54 °F 50.3 °F 29.87 in Calm   3 mph 87.3% 0.00 in 0 W/m2
03:49 53.9 °F 50.4 °F 29.87 in Calm   3 mph 88% 0.00 in 0 W/m2
03:54 53.8 °F 50.3 °F 29.87 in Calm   3 mph 88% 0.00 in 0 W/m2
03:59 53.6 °F 50.2 °F 29.87 in Calm   3 mph 88% 0.00 in 0 W/m2
04:00 53.6 °F 50.1 °F 29.87 in Calm   3 mph 88% 0.00 in 0 W/m2
04:09 53.4 °F 50 °F 29.88 in NNE 0.6 mph 4 mph 88.1% 0.00 in 0 W/m2
04:14 53.3 °F 50.2 °F 29.88 in North 0.3 mph 4 mph 89% 0.00 in 0 W/m2
04:19 53.3 °F 50.1 °F 29.87 in NW 0.1 mph 4 mph 89% 0.00 in 0 W/m2
04:24 53.1 °F 49.7 °F 29.87 in NW 0.5 mph 5 mph 88.1% 0.00 in 0 W/m2
04:29 53 °F 49.5 °F 29.88 in NW 0.2 mph 5 mph 88% 0.00 in 0 W/m2
04:34 52.8 °F 49.4 °F 29.89 in NW 0.5 mph 5 mph 88% 0.00 in 0 W/m2
04:39 52.7 °F 49.3 °F 29.89 in Calm   4 mph 88% 0.00 in 0 W/m2
04:44 52.6 °F 49.2 °F 29.89 in NNW 0.6 mph 6 mph 88% 0.00 in 0 W/m2
04:49 52.5 °F 49 °F 29.89 in NNW 0.8 mph 6 mph 88% 0.00 in 0 W/m2
04:54 52.3 °F 48.9 °F 29.90 in Calm   6 mph 88% 0.00 in 0 W/m2
04:59 52.2 °F 48.7 °F 29.90 in Calm   6 mph 88% 0.00 in 0 W/m2
05:04 52 °F 48.6 °F 29.90 in Calm   6 mph 88% 0.00 in 0 W/m2
05:09 51.9 °F 48.5 °F 29.90 in Calm   1 mph 88% 0.00 in 0 W/m2
05:14 51.8 °F 48.5 °F 29.89 in Calm   1 mph 88.7% 0.00 in 0 W/m2
05:19 51.7 °F 48.5 °F 29.90 in Calm   1 mph 89% 0.00 in 0 W/m2
05:24 51.5 °F 48.4 °F 29.90 in Calm   1 mph 89% 0.00 in 0 W/m2
05:29 51.4 °F 48.3 °F 29.90 in Calm   1 mph 89% 0.00 in 0 W/m2
05:34 51.3 °F 48.1 °F 29.91 in Calm   1 mph 89% 0.00 in 0 W/m2
05:39 51.1 °F 48.1 °F 29.91 in NNW 0.1 mph 2 mph 89.2% 0.00 in 0 W/m2
05:44 51 °F 48 °F 29.91 in Calm   2 mph 89.5% 0.00 in 0 W/m2
05:49 50.8 °F 47.9 °F 29.91 in Calm   2 mph 89.5% 0.00 in 0 W/m2
05:54 50.7 °F 47.6 °F 29.91 in Calm   2 mph 89% 0.00 in 0 W/m2
05:59 50.5 °F 47.4 °F 29.91 in Calm   2 mph 89% 0.00 in 0 W/m2
06:04 50.4 °F 47.2 °F 29.91 in NNW 0.2 mph 2 mph 88.9% 0.00 in 0 W/m2
06:09 50.3 °F 46.9 °F 29.91 in NNW 0.1 mph 3 mph 88% 0.00 in 0 W/m2
06:14 50.2 °F 46.8 °F 29.91 in Calm   3 mph 88% 0.00 in 0 W/m2
06:19 50.2 °F 46.8 °F 29.91 in Calm   3 mph 88% 0.00 in 0 W/m2
06:24 50.2 °F 46.5 °F 29.91 in Calm   3 mph 87% 0.00 in 0 W/m2
06:29 50.1 °F 46.4 °F 29.91 in Calm   3 mph 87% 0.00 in 0 W/m2
06:34 50.1 °F 46.4 °F 29.91 in Calm   3 mph 87.1% 0.00 in 0 W/m2
06:39 50.1 °F 46.7 °F 29.91 in Calm     88% 0.00 in 0 W/m2
06:44 50 °F 46.6 °F 29.92 in Calm     88% 0.00 in 0 W/m2
06:49 49.9 °F 46.5 °F 29.92 in Calm     88% 0.00 in 0 W/m2
06:54 49.8 °F 46.4 °F 29.92 in Calm     88% 0.00 in 5 W/m2
06:59 49.7 °F 46.3 °F 29.92 in Calm     88% 0.00 in 7 W/m2
07:04 49.6 °F 46.2 °F 29.92 in Calm     88.1% 0.00 in 7 W/m2
07:09 49.5 °F 46.4 °F 29.92 in Calm     89% 0.00 in 9 W/m2
07:14 49.4 °F 46.3 °F 29.92 in Calm     89% 0.00 in 11 W/m2
07:19 49.3 °F 46.2 °F 29.93 in Calm     89% 0.00 in 11 W/m2
07:24 49.3 °F 46.5 °F 29.93 in Calm     89.9% 0.00 in 12 W/m2
07:29 49.2 °F 46.4 °F 29.93 in Calm     90% 0.00 in 12 W/m2
07:34 49.2 °F 46.4 °F 29.93 in Calm     90% 0.00 in 18 W/m2
07:39 49.2 °F 46.4 °F 29.94 in Calm     90% 0.00 in 14 W/m2
07:44 49.3 °F 46.5 °F 29.94 in Calm     90% 0.00 in 16 W/m2
07:49 49.5 °F 46.7 °F 29.94 in Calm     90% 0.00 in 16 W/m2
07:54 49.6 °F 46.8 °F 29.94 in NNW 0.2 mph 3 mph 89.8% 0.00 in 30 W/m2
07:59 49.9 °F 46.8 °F 29.94 in Calm   3 mph 89% 0.00 in 30 W/m2
08:09 50.4 °F 47 °F 29.94 in Calm     88.1% 0.00 in 21 W/m2
08:14 50.6 °F 47.1 °F 29.94 in Calm     87.9% 0.00 in 39 W/m2
08:19 50.9 °F 47.2 °F 29.94 in Calm     87.2% 0.00 in 39 W/m2
08:24 51.2 °F 47.4 °F 29.94 in Calm     86.7% 0.00 in 54 W/m2
08:29 51.5 °F 47.4 °F 29.94 in Calm     85.9% 0.00 in 25 W/m2
08:34 51.7 °F 47.4 °F 29.94 in Calm     85% 0.00 in 28 W/m2
08:39 52.1 °F 47.5 °F 29.94 in Calm   1 mph 84.5% 0.00 in 49 W/m2
08:44 52.4 °F 47.3 °F 29.94 in NNE 0.2 mph 2 mph 82.7% 0.00 in 86 W/m2
08:49 52.9 °F 47.5 °F 29.94 in Calm   2 mph 81.9% 0.00 in 46 W/m2
08:54 53.3 °F 47.5 °F 29.94 in North 0.1 mph 4 mph 80.7% 0.00 in 54 W/m2
08:59 53.8 °F 47.7 °F 29.94 in Calm   4 mph 79.7% 0.00 in 83 W/m2
09:04 54.3 °F 47.9 °F 29.94 in Calm   4 mph 78.8% 0.00 in 153 W/m2
09:09 54.9 °F 48.1 °F 29.94 in WNW 1 mph 9 mph 77.8% 0.00 in 427 W/m2
09:14 56.1 °F 48.7 °F 29.94 in NW 1.6 mph 9 mph 76.3% 0.00 in 446 W/m2
09:19 57.3 °F 48.9 °F 29.94 in NNW 0.8 mph 9 mph 73.3% 0.00 in 464 W/m2
09:24 58.5 °F 49.4 °F 29.94 in NNW 0.5 mph 9 mph 71.8% 0.00 in 482 W/m2
09:29 59.5 °F 49.5 °F 29.94 in East 0.3 mph 9 mph 69.5% 0.00 in 499 W/m2
09:34 60.3 °F 49.7 °F 29.95 in North 1.7 mph 9 mph 68.1% 0.00 in 512 W/m2
09:39 61.1 °F 50.1 °F 29.95 in NE 0.4 mph 9 mph 67.3% 0.00 in 526 W/m2
09:44 61.9 °F 51.5 °F 29.94 in NNW 0.4 mph 9 mph 68.7% 0.00 in 541 W/m2
09:49 62.5 °F 51.2 °F 29.94 in WNW 0.1 mph 9 mph 66.5% 0.00 in 552 W/m2
09:54 63 °F 50.8 °F 29.94 in NE 0.7 mph 9 mph 64.6% 0.00 in 566 W/m2
09:59 63.2 °F 49.7 °F 29.94 in NNW 1.1 mph 9 mph 61.4% 0.00 in 577 W/m2
10:04 63.6 °F 51.3 °F 29.94 in NNE 0.6 mph 9 mph 64.3% 0.00 in 589 W/m2
10:09 64 °F 50.9 °F 29.94 in ENE 1 mph 5 mph 62.4% 0.00 in 596 W/m2
10:14 64.2 °F 51.5 °F 29.94 in NE 0.5 mph 5 mph 63.2% 0.00 in 608 W/m2
10:19 64.4 °F 51.8 °F 29.94 in NE 0.9 mph 5 mph 63.6% 0.00 in 619 W/m2
10:24 64.6 °F 51.2 °F 29.94 in NE 0.6 mph 5 mph 61.9% 0.00 in 629 W/m2
10:29 64.7 °F 51.4 °F 29.93 in North 1.3 mph 10 mph 62% 0.00 in 640 W/m2
10:34 64.9 °F 50.5 °F 29.93 in NNE 0.6 mph 10 mph 59.5% 0.00 in 650 W/m2
10:39 65.2 °F 52.3 °F 29.93 in North 0.4 mph 5 mph 63.1% 0.00 in 659 W/m2
10:44 65.8 °F 51.9 °F 29.93 in NW 0.7 mph 7 mph 60.9% 0.00 in 670 W/m2
10:49 65.8 °F 49.7 °F 29.93 in NE 1.5 mph 7 mph 56% 0.00 in 677 W/m2
10:54 65.7 °F 50.4 °F 29.93 in ENE 2.4 mph 7 mph 57.8% 0.00 in 687 W/m2
10:59 65.6 °F 50.5 °F 29.93 in NE 1.2 mph 7 mph 58.2% 0.00 in 694 W/m2
11:04 65.8 °F 50.5 °F 29.93 in ENE 3.1 mph 10 mph 57.8% 0.00 in 703 W/m2
11:09 65.9 °F 50.7 °F 29.93 in NE 0.2 mph 10 mph 58% 0.00 in 712 W/m2
11:14 66.3 °F 52.1 °F 29.93 in NNE 0.3 mph 10 mph 60.1% 0.00 in 717 W/m2
11:19 66.6 °F 50.6 °F 29.92 in NE 1.7 mph 10 mph 56.3% 0.00 in 721 W/m2
11:24 66.5 °F 50.7 °F 29.92 in ENE 1.1 mph 10 mph 56.9% 0.00 in 577 W/m2
11:29 66 °F 50.5 °F 29.92 in ENE 1.3 mph 10 mph 57.2% 0.00 in 684 W/m2
11:34 65.6 °F 50 °F 29.92 in ENE 1.9 mph 10 mph 57% 0.00 in 684 W/m2
11:39 65.1 °F 49.8 °F 29.92 in East 0.8 mph 9 mph 57.6% 0.00 in 475 W/m2
11:44 65.1 °F 51.6 °F 29.92 in NE 0.6 mph 9 mph 61.4% 0.00 in 475 W/m2
11:49 65.4 °F 50.6 °F 29.92 in NNE 0.3 mph 9 mph 58.8% 0.00 in 181 W/m2
11:54 65.4 °F 50 °F 29.92 in NW 0.5 mph 9 mph 57.4% 0.00 in 181 W/m2
11:59 65.2 °F 49.7 °F 29.92 in ENE 1.3 mph 9 mph 57.4% 0.00 in 225 W/m2
12:00 65 °F 48.9 °F 29.92 in ESE 3 mph 9 mph 56% 0.00 in 156 W/m2
12:09 64.8 °F 49.5 °F 29.92 in ENE 2.3 mph 7 mph 57.5% 0.00 in 188 W/m2
12:14 64.9 °F 49.5 °F 29.92 in NE 3.3 mph 7 mph 57.5% 0.00 in 246 W/m2
12:19 64.9 °F 49.2 °F 29.92 in ENE 1.2 mph 7 mph 56.6% 0.00 in 267 W/m2
12:24 64.8 °F 49.6 °F 29.92 in Calm   7 mph 57.8% 0.00 in 174 W/m2
12:29 64.6 °F 49.8 °F 29.91 in NE 0.7 mph 7 mph 58.6% 0.00 in 220 W/m2
12:34 64.5 °F 49.1 °F 29.91 in East 1.3 mph 7 mph 57.3% 0.00 in 139 W/m2
12:39 64.6 °F 50.3 °F 29.91 in ENE 0.4 mph 7 mph 59.8% 0.00 in 199 W/m2
12:44 64.8 °F 50.6 °F 29.91 in ENE 0.4 mph 7 mph 59.8% 0.00 in 213 W/m2
12:49 64.9 °F 49.5 °F 29.91 in NE 0.6 mph 7 mph 57.5% 0.00 in 120 W/m2
12:54 64.9 °F 49.1 °F 29.91 in ENE 1.2 mph 7 mph 56.6% 0.00 in 130 W/m2
12:59 64.7 °F 49 °F 29.91 in ENE 0.5 mph 7 mph 56.8% 0.00 in 171 W/m2
Hartford County Weather
Compliments of Weather Underground - 2 mb